Current | Forecast
Updated: 12:00 AM +07 on October 22, 2017
Observed at Barnaul, Russia
Temperature 46°F
Windchill 42°F
Humidity 76%
Dew Point 39°F
Wind SSW at 9 mph
Pressure 29.86 in (Steady)
Conditions Clear
Visibility -
UV N/A
Clouds
Yesterday's Maximum 48°F
Yesterday's Minimum 45°F approx.
Yesterday's Heating Degree Days 19 approx.
Sunrise7:04 AM +06
Sunset5:20 PM +06
Moon Rise8:16 AM +06
Moon Set6:28 PM +06
Moon PhaseMoon Phase
Waxing Crescent
Raw METARMETAR UNBB 211700Z 20004MPS CAVOK 08/04 Q1011 R24/290250 NOSIG RMK QFE736


Monday
. High: 59° F.
Tuesday
. High: 66° F.
Wednesday
. High: 68° F.
Thursday
. High: 69° F.
Friday
. High: 75° F.
Saturday
. High: 78° F.
Sunday
. High: 78° F.
Monday
. High: 84° F.

Units: English | Metric

Find the Weather for any City, State or Zipcode, or Country:

U.S. State List | Severe Weather | Tropical Storms | Ski Conditions
United States | Canada | Central America | South America | Asia | Europe | Australia | Africa | Islands

Weather Underground

© Copyright 2017
The Weather Company, LLC